General Aviation Weather

Text Reports

Enter one or more of the following location identifiers separated by a space:

Zip Code, Four-Character ICAO or Three-Character IATA airport codes.

METAR - Aviation Routine Weather Report
KTOR - Torrington, Wyoming
Updated at 6:53 PM GMT on July 22, 2014 (12:53 PM MDT):
METAR KTOR 221853Z AUTO 13010G16KT 10SM CLR 31/13 A3025 RMK AO2 SLP187 T03110128
TAF - Terminal Area Forecast
KTOR - Torrington, Wyoming
Updated at 6:53 PM GMT on July 22, 2014 (12:53 PM MDT):
No TAF is currently available for this location.
Decoded:
No decoded TAF is available.
PIREP - Pilot Weather Report
KTOR - Torrington, Wyoming
Updated at 6:53 PM GMT on July 22, 2014 (12:53 PM MDT):
No PIREP is currently available for this location.
AIRMET - Airmens Meteorological Information
KTOR - Torrington, Wyoming
Updated at 6:53 PM GMT on July 22, 2014 (12:53 PM MDT):
No AIRMET is currently available for this location.
SIGMET - Significant Meteorological Information
KTOR - Torrington, Wyoming
Updated at 6:53 PM GMT on July 22, 2014 (12:53 PM MDT):
No SIGMET is currently available for this location.
NOTAM - Notice to Airmen
KTOR - Torrington, Wyoming
Updated at 6:53 PM GMT on July 22, 2014 (12:53 PM MDT):
No NOTAM is currently available for this location.
Forecast Area
KTOR - Torrington, Wyoming
Updated at 6:53 PM GMT on July 22, 2014 (12:53 PM MDT):
No NOTAM is currently available for this location.
Aviation Weather Maps